Time;durP1;ratioP1;P1;durP2;ratioP2;P2;SDS_P1;SDS_P2;PMS_P1;PMS_P2;Temp;Humidity;BMP_temperature;BMP_pressure;BME280_temperature;BME280_humidity;BME280_pressure;Samples;Min_cycle;Max_cycle;Signal;HPM_P1;HPM_P2
2021/09/05 00:02:12;;;;;;;3.58;3.00;;;;;;;26.35;48.35;101231.91;144992;910;6002;-88
2021/09/05 00:04:39;;;;;;;4.55;3.30;;;;;;;26.36;48.69;101231.88;144992;910;6002;-87
2021/09/05 00:07:10;;;;;;;3.67;2.97;;;;;;;26.40;48.37;101241.50;144992;571;6002;-87
2021/09/05 00:09:39;;;;;;;3.78;3.15;;;;;;;26.43;48.30;101241.41;144992;563;6002;-86
2021/09/05 00:12:06;;;;;;;3.50;3.12;;;;;;;26.48;47.86;101243.09;144992;743;6002;-87
2021/09/05 00:14:32;;;;;;;3.78;3.40;;;;;;;26.49;47.79;101229.75;144992;570;6002;-87
2021/09/05 00:16:59;;;;;;;3.70;3.40;;;;;;;26.50;47.63;101236.78;144992;593;6002;-87
2021/09/05 00:19:25;;;;;;;5.00;3.10;;;;;;;26.52;47.45;101234.06;144992;910;6002;-88
2021/09/05 00:21:52;;;;;;;5.05;3.33;;;;;;;26.53;47.31;101231.38;144992;910;6002;-87
2021/09/05 00:24:23;;;;;;;4.75;3.62;;;;;;;26.51;47.43;101233.22;144992;900;6002;-87
2021/09/05 00:26:49;;;;;;;4.50;3.40;;;;;;;26.50;47.21;101231.47;144992;883;6002;-87
2021/09/05 00:29:16;;;;;;;3.60;3.30;;;;;;;26.50;47.23;101234.13;144992;910;6002;-88
2021/09/05 00:31:43;;;;;;;3.62;3.17;;;;;;;26.46;47.07;101237.81;144992;693;6002;-88
2021/09/05 00:34:10;;;;;;;4.60;3.30;;;;;;;26.48;47.04;101245.75;144992;910;6002;-87
2021/09/05 00:36:37;;;;;;;3.83;3.42;;;;;;;26.46;46.97;101239.59;144992;566;6002;-86
2021/09/05 00:39:06;;;;;;;5.50;3.25;;;;;;;26.42;46.89;101241.47;144992;592;6002;-86
2021/09/05 00:41:32;;;;;;;3.65;3.20;;;;;;;26.34;47.19;101246.13;144992;648;6002;-87
2021/09/05 00:44:05;;;;;;;5.53;3.35;;;;;;;26.24;46.95;101248.19;144992;580;6002;-87
2021/09/05 00:46:33;;;;;;;4.28;3.55;;;;;;;26.21;47.30;101249.12;144992;613;6002;-88
2021/09/05 00:49:00;;;;;;;4.97;3.20;;;;;;;26.21;47.26;101248.25;144992;856;6002;-87
2021/09/05 00:51:33;;;;;;;4.90;3.65;;;;;;;26.21;46.96;101245.59;144992;910;6002;-86
2021/09/05 00:54:01;;;;;;;3.50;3.20;;;;;;;26.21;47.10;101250.91;144992;565;6002;-87
2021/09/05 00:56:30;;;;;;;3.70;3.40;;;;;;;26.20;47.14;101250.06;144992;566;6002;-87
2021/09/05 00:58:59;;;;;;;3.87;3.47;;;;;;;26.20;46.76;101244.72;144992;582;6002;-87
2021/09/05 01:01:25;;;;;;;4.50;3.45;;;;;;;26.17;46.83;101251.91;144992;855;6002;-87
2021/09/05 01:03:52;;;;;;;5.10;3.53;;;;;;;26.17;47.15;101243.91;144992;565;6002;-89
2021/09/05 01:06:19;;;;;;;4.00;3.30;;;;;;;26.14;46.96;101242.22;144992;910;6002;-90
2021/09/05 01:08:46;;;;;;;8.10;3.60;;;;;;;26.16;46.62;101243.06;144992;909;6002;-89
2021/09/05 01:11:12;;;;;;;4.45;3.78;;;;;;;26.16;46.72;101237.72;144992;864;6002;-88
2021/09/05 01:13:39;;;;;;;3.80;3.50;;;;;;;26.17;46.50;101234.16;144992;910;6002;-87
2021/09/05 01:16:06;;;;;;;4.72;3.60;;;;;;;26.17;46.44;101236.81;144992;582;6002;-86
2021/09/05 01:18:32;;;;;;;4.10;3.25;;;;;;;26.19;46.61;101242.97;144992;910;6002;-87
2021/09/05 01:20:59;;;;;;;4.07;3.35;;;;;;;26.19;46.48;101232.34;144992;910;6003;-87
2021/09/05 01:23:25;;;;;;;6.30;3.70;;;;;;;26.20;46.29;101233.19;144992;892;6002;-87
2021/09/05 01:25:52;;;;;;;4.45;3.55;;;;;;;26.20;46.46;101238.50;144992;745;6002;-86
2021/09/05 01:28:18;;;;;;;4.32;3.42;;;;;;;26.20;46.28;101242.06;144992;849;6003;-89
2021/09/05 01:30:44;;;;;;;3.72;3.37;;;;;;;26.21;46.34;101240.28;144992;784;6002;-89
2021/09/05 01:33:15;;;;;;;3.55;3.25;;;;;;;26.18;46.59;101238.56;144992;910;6002;-87
2021/09/05 01:35:41;;;;;;;4.80;3.28;;;;;;;26.14;46.62;101238.72;144992;910;6002;-87
2021/09/05 01:38:07;;;;;;;5.12;3.40;;;;;;;26.11;46.13;101242.31;144992;641;6002;-88
2021/09/05 01:40:34;;;;;;;4.43;3.20;;;;;;;26.12;46.53;101243.19;144992;583;6002;-86
2021/09/05 01:43:00;;;;;;;4.65;3.17;;;;;;;26.13;46.32;101239.59;144992;586;6002;-86
2021/09/05 01:45:27;;;;;;;3.97;3.45;;;;;;;26.13;46.04;101232.50;144992;579;6002;-86
2021/09/05 01:47:53;;;;;;;4.57;3.65;;;;;;;26.09;46.51;101248.56;144992;574;6011;-86
2021/09/05 01:50:20;;;;;;;5.40;4.90;;;;;;;26.03;46.22;101245.16;144992;912;6002;-87
2021/09/05 01:52:46;;;;;;;4.60;3.97;;;;;;;26.04;46.58;101248.69;144992;564;6002;-87
2021/09/05 01:55:13;;;;;;;4.30;3.92;;;;;;;26.03;46.23;101244.31;144992;912;6002;-88
2021/09/05 01:57:40;;;;;;;4.37;3.78;;;;;;;26.03;46.26;101241.66;144992;572;6002;-87
2021/09/05 02:00:07;;;;;;;3.95;3.55;;;;;;;26.04;46.32;101244.28;144992;570;6002;-86
2021/09/05 02:02:34;;;;;;;5.82;3.50;;;;;;;26.03;46.32;101242.50;144992;614;6002;-88
2021/09/05 02:05:00;;;;;;;3.92;3.60;;;;;;;26.01;46.18;101239.03;144992;579;6002;-87
2021/09/05 02:07:27;;;;;;;4.05;3.37;;;;;;;26.03;46.10;101241.66;144992;880;6002;-87
2021/09/05 02:09:53;;;;;;;4.07;3.60;;;;;;;26.02;45.98;101246.06;144992;569;6002;-86
2021/09/05 02:12:21;;;;;;;4.45;3.40;;;;;;;25.94;46.34;101250.69;144992;912;6002;-86
2021/09/05 02:14:48;;;;;;;6.93;3.65;;;;;;;25.92;45.79;101247.22;144992;912;6002;-87
2021/09/05 02:17:15;;;;;;;6.68;3.90;;;;;;;25.94;46.29;101242.72;144992;912;6002;-87
2021/09/05 02:19:41;;;;;;;5.30;3.35;;;;;;;25.94;45.93;101248.03;144992;575;6002;-89
2021/09/05 02:22:08;;;;;;;5.32;3.55;;;;;;;25.93;46.25;101245.41;144992;569;6002;-88
2021/09/05 02:24:34;;;;;;;4.20;3.30;;;;;;;25.95;45.85;101248.94;144992;569;6002;-89
2021/09/05 02:27:07;;;;;;;3.83;3.45;;;;;;;25.98;45.50;101249.75;144992;912;6002;-88
2021/09/05 02:29:38;;;;;;;3.67;3.37;;;;;;;26.01;45.51;101249.66;144992;594;6002;-87
2021/09/05 02:32:16;;;;;;;3.70;3.12;;;;;;;26.02;45.53;101246.06;144992;912;6002;-89
2021/09/05 02:34:43;;;;;;;3.47;3.17;;;;;;;26.04;45.31;101246.94;144992;812;6002;-89
2021/09/05 02:37:11;;;;;;;3.62;3.33;;;;;;;26.06;45.53;101247.75;144993;912;6002;-87
2021/09/05 02:39:38;;;;;;;3.92;3.20;;;;;;;26.11;45.49;101244.97;144993;913;6002;-89
2021/09/05 02:42:05;;;;;;;4.62;3.40;;;;;;;26.12;45.09;101245.84;144993;912;6002;-88
2021/09/05 02:44:36;;;;;;;4.50;3.30;;;;;;;26.14;44.98;101234.25;144993;884;6002;-89
2021/09/05 02:47:06;;;;;;;4.93;3.30;;;;;;;26.15;45.10;101235.12;144993;911;6002;-88
2021/09/05 02:49:32;;;;;;;3.92;3.35;;;;;;;26.16;45.44;101237.72;144993;873;6002;-88
2021/09/05 02:52:05;;;;;;;5.95;3.78;;;;;;;26.13;45.28;101236.94;144993;870;6002;-87
2021/09/05 02:54:35;;;;;;;;;;;;;;;26.14;44.81;101230.72;144998;912;6002;-88
2021/09/05 02:57:04;;;;;;;3.70;3.17;;;;;;;26.13;45.01;101232.50;144998;575;6002;-87
2021/09/05 02:59:31;;;;;;;5.12;3.50;;;;;;;26.15;45.19;101243.09;144993;777;6002;-88
2021/09/05 03:04:33;;;;;;;3.60;3.30;;;;;;;26.23;44.84;101242.00;144992;581;6002;-86
2021/09/05 03:07:04;;;;;;;4.40;3.55;;;;;;;26.27;44.71;101240.09;144992;573;6002;-88
2021/09/05 03:09:31;;;;;;;3.65;3.33;;;;;;;26.27;45.06;101229.47;144992;910;6002;-89
2021/09/05 03:12:00;;;;;;;3.70;3.37;;;;;;;26.29;44.54;101235.59;144992;911;6002;-87
2021/09/05 03:14:29;;;;;;;3.85;3.33;;;;;;;26.26;44.70;101235.69;144993;899;6002;-88
2021/09/05 03:16:56;;;;;;;3.80;3.37;;;;;;;26.27;44.58;101239.25;144992;588;6002;-88
2021/09/05 03:19:23;;;;;;;4.85;3.47;;;;;;;26.22;44.63;101240.22;144992;655;6002;-88
2021/09/05 03:21:49;;;;;;;7.07;3.70;;;;;;;26.18;44.77;101240.34;144993;912;6002;-88
2021/09/05 03:24:16;;;;;;;3.53;3.22;;;;;;;26.14;44.88;101244.03;144992;569;6002;-88
2021/09/05 03:26:42;;;;;;;5.12;3.62;;;;;;;26.12;44.80;101251.16;144993;911;6002;-87
2021/09/05 03:29:12;;;;;;;6.35;3.62;;;;;;;26.10;44.68;101253.84;144993;612;6002;-88
2021/09/05 03:31:39;;;;;;;5.30;3.85;;;;;;;26.05;44.08;101253.97;144993;595;6002;-87
2021/09/05 03:34:07;;;;;;;3.90;3.47;;;;;;;25.97;44.82;101258.62;144993;565;6002;-87
2021/09/05 03:36:34;;;;;;;3.80;3.03;;;;;;;25.95;44.67;101259.56;144993;586;6002;-86
2021/09/05 03:39:05;;;;;;;3.55;3.25;;;;;;;25.94;44.59;101261.34;144993;587;6002;-89
2021/09/05 03:41:35;;;;;;;3.60;3.20;;;;;;;25.94;44.34;101256.00;144993;569;6002;-85
2021/09/05 03:44:24;;;;;;;3.67;3.25;;;;;;;25.84;44.37;101263.34;144993;564;6002;-86
2021/09/05 03:47:00;;;;;;;4.22;3.70;;;;;;;25.88;44.42;101262.38;144993;788;6000;-86
2021/09/05 03:49:28;;;;;;;4.53;3.47;;;;;;;25.95;44.21;101271.06;144993;566;6002;-88
2021/09/05 03:51:55;;;;;;;4.90;3.22;;;;;;;25.96;44.32;101269.28;144993;909;6002;-89
2021/09/05 03:54:25;;;;;;;3.85;3.45;;;;;;;25.93;44.17;101277.31;144993;569;6002;-87
2021/09/05 03:56:57;;;;;;;4.12;3.40;;;;;;;25.92;44.27;101279.12;144993;800;6002;-88
2021/09/05 03:59:24;;;;;;;4.05;3.35;;;;;;;25.93;44.61;101285.31;144993;909;6002;-86
2021/09/05 04:01:54;;;;;;;4.37;3.45;;;;;;;25.93;44.15;101278.22;144993;582;6002;-88
2021/09/05 04:04:25;;;;;;;5.78;3.50;;;;;;;25.95;44.56;101281.72;144993;909;6002;-87
2021/09/05 04:07:00;;;;;;;4.85;3.70;;;;;;;25.94;44.00;101290.59;144993;909;6002;-88
2021/09/05 04:12:19;;;;;;;7.37;3.83;;;;;;;25.92;44.10;101291.56;144993;585;6005;-86
2021/09/05 04:14:46;;;;;;;3.80;3.25;;;;;;;25.89;44.32;101298.69;144993;911;5002;-86
2021/09/05 04:17:17;;;;;;;4.25;3.53;;;;;;;25.93;43.72;101295.94;144994;608;5002;-87
2021/09/05 04:19:43;;;;;;;6.35;3.90;;;;;;;25.93;44.25;101294.19;144994;581;5002;-88
2021/09/05 04:22:13;;;;;;;4.75;3.90;;;;;;;25.95;43.79;101303.00;144994;910;5002;-88
2021/09/05 04:24:39;;;;;;;4.25;3.62;;;;;;;25.94;43.83;101305.69;144994;911;5002;-88
2021/09/05 04:27:11;;;;;;;4.85;3.10;;;;;;;25.95;43.85;101315.41;144994;911;5002;-87
2021/09/05 04:29:43;;;;;;;3.75;3.33;;;;;;;25.94;43.77;101303.03;144994;833;5002;-88
2021/09/05 04:32:10;;;;;;;5.03;3.37;;;;;;;25.97;43.47;101317.12;144994;911;5002;-87
2021/09/05 04:34:37;;;;;;;4.15;3.42;;;;;;;25.93;44.16;101315.47;144994;911;5002;-87
2021/09/05 04:37:04;;;;;;;5.00;3.40;;;;;;;25.92;44.08;101323.47;144994;911;5002;-89
2021/09/05 04:39:33;;;;;;;4.35;3.37;;;;;;;25.92;43.64;101318.16;144994;614;5002;-88
2021/09/05 04:42:01;;;;;;;3.40;3.20;;;;;;;25.95;43.82;101316.28;144994;684;5002;-86
2021/09/05 04:44:27;;;;;;;4.22;3.62;;;;;;;25.98;43.95;101315.37;144994;911;5002;-88
2021/09/05 04:46:53;;;;;;;4.10;3.70;;;;;;;26.01;43.32;101318.81;144994;910;5002;-88
2021/09/05 04:49:23;;;;;;;5.78;3.40;;;;;;;26.05;43.90;101323.12;144994;572;5002;-89
2021/09/05 04:51:49;;;;;;;4.10;3.50;;;;;;;26.08;43.42;101324.87;144994;569;5002;-87
2021/09/05 04:54:22;;;;;;;3.70;3.40;;;;;;;26.11;43.71;101329.25;144994;594;5002;-88
2021/09/05 04:56:51;;;;;;;4.07;3.40;;;;;;;26.15;43.86;101336.22;144994;588;5002;-87
2021/09/05 04:59:17;;;;;;;4.28;3.60;;;;;;;26.18;43.59;101336.13;144994;564;5002;-88
2021/09/05 05:01:44;;;;;;;4.28;3.60;;;;;;;26.20;43.14;101334.31;144993;911;5002;-88
2021/09/05 05:04:10;;;;;;;4.68;4.00;;;;;;;26.20;43.49;101336.97;144994;565;5003;-88
2021/09/05 05:06:41;;;;;;;4.47;3.42;;;;;;;26.20;42.89;101335.19;144994;569;5002;-88
2021/09/05 05:09:12;;;;;;;5.43;3.47;;;;;;;26.20;43.52;101329.88;144994;874;5002;-88
2021/09/05 05:11:43;;;;;;;8.25;4.10;;;;;;;26.20;43.37;101331.63;144994;911;5002;-87
2021/09/05 05:14:11;;;;;;;4.18;3.78;;;;;;;26.20;42.88;101327.22;144994;647;5002;-87
2021/09/05 05:16:38;;;;;;;4.18;3.40;;;;;;;26.21;43.16;101325.41;144994;576;5002;-87
2021/09/05 05:19:04;;;;;;;5.95;3.50;;;;;;;26.24;42.73;101328.00;144994;911;5002;-86
2021/09/05 05:21:31;;;;;;;4.22;3.67;;;;;;;26.28;43.35;101343.00;144994;611;5002;-87
2021/09/05 05:23:59;;;;;;;4.18;3.15;;;;;;;26.30;42.74;101341.16;144994;628;5002;-87
2021/09/05 05:26:27;;;;;;;4.85;3.30;;;;;;;26.34;43.12;101337.47;144994;911;5002;-87
2021/09/05 05:28:54;;;;;;;3.97;3.50;;;;;;;26.35;42.87;101330.38;144994;758;5002;-85
2021/09/05 05:31:20;;;;;;;4.10;3.67;;;;;;;26.37;42.62;101331.22;144994;911;5002;-87
2021/09/05 05:33:47;;;;;;;5.50;3.47;;;;;;;26.43;42.54;101350.53;144994;788;5002;-86
2021/09/05 05:36:13;;;;;;;4.40;3.45;;;;;;;26.48;42.80;101350.44;144994;572;5002;-88
2021/09/05 05:38:40;;;;;;;4.65;3.05;;;;;;;26.55;42.65;101351.13;144994;911;5002;-89
2021/09/05 05:41:07;;;;;;;5.55;3.40;;;;;;;26.60;42.91;101343.91;144994;568;5002;-86
2021/09/05 05:43:34;;;;;;;5.28;3.17;;;;;;;26.66;42.79;101349.13;144994;910;5002;-87
2021/09/05 05:46:01;;;;;;;5.05;3.30;;;;;;;26.70;42.82;101349.91;144994;911;5002;-87
2021/09/05 05:48:27;;;;;;;3.70;3.28;;;;;;;26.75;42.43;101347.97;144994;911;5003;-85
2021/09/05 05:50:54;;;;;;;3.58;3.28;;;;;;;26.82;42.30;101354.88;144994;621;5002;-86
2021/09/05 05:53:21;;;;;;;4.87;3.40;;;;;;;26.84;42.64;101350.38;144994;571;5002;-88
2021/09/05 05:55:48;;;;;;;3.65;3.20;;;;;;;26.86;42.28;101355.66;144994;887;5003;-86
2021/09/05 05:58:14;;;;;;;4.55;3.15;;;;;;;26.87;42.70;101354.72;144994;580;5002;-88
2021/09/05 06:00:42;;;;;;;3.33;3.03;;;;;;;26.89;42.82;101352.91;144994;563;5002;-88
2021/09/05 06:03:09;;;;;;;3.95;3.00;;;;;;;26.89;42.82;101355.59;144994;595;5002;-87
2021/09/05 06:05:35;;;;;;;3.50;3.20;;;;;;;26.91;42.49;101353.75;144994;611;5002;-88
2021/09/05 06:08:03;;;;;;;3.87;3.17;;;;;;;26.94;42.25;101356.31;144994;815;5002;-86
2021/09/05 06:10:31;;;;;;;3.92;3.37;;;;;;;26.96;42.70;101347.38;144994;911;5002;-86
2021/09/05 06:12:58;;;;;;;4.15;2.85;;;;;;;27.04;42.48;101357.78;144994;574;5002;-83
2021/09/05 06:15:25;;;;;;;5.47;3.28;;;;;;;27.13;41.81;101360.19;144994;566;5002;-88
2021/09/05 06:17:51;;;;;;;4.55;3.15;;;;;;;27.21;41.61;101354.63;144994;676;5002;-87
2021/09/05 06:20:18;;;;;;;5.50;3.40;;;;;;;27.23;41.62;101355.44;144994;597;5002;-88
2021/09/05 06:22:44;;;;;;;4.37;3.33;;;;;;;27.26;41.55;101357.16;144994;587;5002;-86
2021/09/05 06:25:11;;;;;;;5.12;3.15;;;;;;;27.35;41.61;101359.59;144994;584;5002;-86
2021/09/05 06:27:38;;;;;;;4.18;3.20;;;;;;;27.48;41.55;101370.75;144994;571;5002;-88
2021/09/05 06:30:07;;;;;;;4.25;3.60;;;;;;;27.57;41.49;101361.59;144994;595;5002;-85
2021/09/05 06:32:33;;;;;;;5.97;3.50;;;;;;;27.71;41.52;101363.81;144994;563;5002;-88
2021/09/05 06:35:00;;;;;;;4.97;3.10;;;;;;;27.83;41.02;101369.63;144994;744;5002;-87
2021/09/05 06:37:26;;;;;;;6.95;3.80;;;;;;;27.91;40.87;101373.88;144994;640;5002;-86
2021/09/05 06:39:54;;;;;;;5.85;2.75;;;;;;;27.72;40.17;101369.13;144994;573;5002;-89
2021/09/05 06:42:21;;;;;;;3.72;3.25;;;;;;;27.73;41.03;101370.88;144994;592;5002;-87
2021/09/05 06:44:47;;;;;;;3.72;3.40;;;;;;;27.84;41.16;101374.06;144994;703;5002;-86
2021/09/05 06:47:14;;;;;;;4.80;3.60;;;;;;;27.93;40.84;101382.69;144994;581;5002;-88
2021/09/05 06:49:40;;;;;;;6.07;3.70;;;;;;;28.06;40.69;101376.03;144994;601;5002;-87
2021/09/05 06:52:07;;;;;;;7.22;3.30;;;;;;;28.18;40.72;101380.97;144994;570;5002;-88
2021/09/05 06:54:33;;;;;;;6.62;3.28;;;;;;;28.32;40.66;101385.00;144994;582;5002;-90
2021/09/05 06:57:00;;;;;;;3.35;3.05;;;;;;;28.33;40.63;101382.28;144994;759;5002;-87
2021/09/05 06:59:26;;;;;;;3.55;2.78;;;;;;;28.29;40.53;101391.31;144994;570;5002;-85
2021/09/05 07:01:53;;;;;;;3.30;2.97;;;;;;;28.20;38.62;101381.78;144994;637;5002;-88
2021/09/05 07:04:19;;;;;;;3.15;2.85;;;;;;;28.10;40.77;101398.19;144994;654;5002;-88
2021/09/05 07:06:46;;;;;;;4.87;2.78;;;;;;;28.14;40.71;101399.81;144994;579;5002;-89
2021/09/05 07:09:13;;;;;;;3.67;2.60;;;;;;;28.07;40.10;101391.16;144993;601;5002;-86
2021/09/05 07:11:39;;;;;;;3.50;2.90;;;;;;;27.98;39.83;101392.34;144994;571;5002;-88
2021/09/05 07:14:06;;;;;;;3.12;2.80;;;;;;;27.83;39.96;101400.78;144994;569;5002;-88
2021/09/05 07:16:32;;;;;;;5.22;2.87;;;;;;;27.77;37.80;101392.97;144994;748;5002;-86
2021/09/05 07:18:58;;;;;;;3.62;3.17;;;;;;;27.80;40.02;101393.75;144994;573;5002;-87
2021/09/05 07:21:25;;;;;;;5.32;2.92;;;;;;;27.87;40.38;101395.31;144994;627;5002;-89
2021/09/05 07:23:51;;;;;;;3.30;2.60;;;;;;;28.06;40.37;101400.06;144994;572;5002;-86
2021/09/05 07:26:18;;;;;;;3.70;2.62;;;;;;;28.28;39.79;101388.69;144994;616;5002;-87
2021/09/05 07:28:44;;;;;;;4.57;2.90;;;;;;;28.49;39.67;101392.41;144994;574;5002;-89
2021/09/05 07:31:11;;;;;;;5.65;2.80;;;;;;;28.48;39.63;101391.56;144994;565;5002;-90
2021/09/05 07:33:38;;;;;;;3.35;2.97;;;;;;;28.64;39.39;101391.91;144994;612;5002;-87
2021/09/05 07:36:05;;;;;;;5.57;2.67;;;;;;;28.64;39.06;101399.06;144994;596;5002;-89
2021/09/05 07:38:31;;;;;;;5.50;2.33;;;;;;;28.71;39.37;101401.44;144994;586;5002;-86
2021/09/05 07:40:57;;;;;;;4.32;2.42;;;;;;;28.84;38.42;101391.22;144994;581;5002;-91
2021/09/05 07:43:24;;;;;;;3.95;2.58;;;;;;;28.97;38.31;101398.75;144994;648;5002;-89
2021/09/05 07:45:50;;;;;;;3.87;2.87;;;;;;;28.89;38.56;101405.28;144994;596;5002;-89
2021/09/05 07:48:17;;;;;;;3.25;2.70;;;;;;;28.92;37.88;101398.94;144994;680;5002;-87
2021/09/05 07:50:44;;;;;;;4.85;2.90;;;;;;;28.91;38.31;101395.41;144994;566;5002;-88
2021/09/05 07:53:10;;;;;;;4.15;2.75;;;;;;;29.02;38.05;101402.16;144993;614;5002;-88
2021/09/05 07:55:37;;;;;;;3.70;2.60;;;;;;;29.07;37.32;101405.53;144994;654;5002;-89
2021/09/05 07:58:03;;;;;;;5.57;2.70;;;;;;;28.98;37.69;101403.19;144994;682;5002;-88
2021/09/05 08:00:39;;;;;;;3.08;2.62;;;;;;;28.61;38.28;101404.53;144994;576;5002;-87
2021/09/05 08:03:08;;;;;;;5.18;2.90;;;;;;;28.47;38.87;101405.81;144994;587;5003;-87
2021/09/05 08:05:41;;;;;;;3.10;2.80;;;;;;;28.46;39.18;101408.53;144994;712;5002;-85
2021/09/05 08:08:09;;;;;;;;;;;;;;;28.37;39.28;101401.72;144998;913;5002;-86
2021/09/05 08:10:38;;;;;;;3.92;2.78;;;;;;;28.32;39.58;101412.56;144998;719;5003;-87
2021/09/05 08:13:06;;;;;;;3.50;2.30;;;;;;;28.32;39.31;101417.03;144994;655;5002;-87
2021/09/05 08:15:37;;;;;;;3.45;2.80;;;;;;;28.15;40.48;101414.91;144994;653;5002;-90
2021/09/05 08:18:06;;;;;;;4.28;2.70;;;;;;;28.12;40.38;101420.34;144994;707;5002;-90
2021/09/05 08:20:33;;;;;;;3.00;2.40;;;;;;;28.11;40.62;101414.16;144994;677;5002;-87
2021/09/05 08:22:59;;;;;;;2.95;2.55;;;;;;;27.96;41.01;101410.16;144994;731;5002;-88
2021/09/05 08:25:26;;;;;;;3.30;2.80;;;;;;;27.88;41.29;101412.19;144994;657;5002;-87
2021/09/05 08:27:52;;;;;;;5.32;3.83;;;;;;;27.83;41.15;101414.13;144994;587;5002;-88
2021/09/05 08:30:19;;;;;;;4.15;3.53;;;;;;;27.71;41.97;101412.69;144994;583;5002;-87
2021/09/05 08:32:46;;;;;;;4.00;3.53;;;;;;;27.92;41.46;101408.50;144994;612;5002;-86
2021/09/05 08:35:12;;;;;;;4.72;4.20;;;;;;;27.76;41.86;101417.88;144994;634;5002;-89
2021/09/05 08:37:40;;;;;;;5.28;3.85;;;;;;;27.81;41.57;101416.84;144994;565;5002;-86
2021/09/05 08:40:08;;;;;;;9.18;4.50;;;;;;;27.71;42.00;101409.16;144994;623;5002;-88
2021/09/05 08:42:35;;;;;;;3.87;3.28;;;;;;;27.74;42.14;101415.28;144994;586;5002;-89
2021/09/05 08:45:03;;;;;;;5.55;3.50;;;;;;;27.62;42.47;101405.88;144994;588;5002;-85
2021/09/05 08:47:33;;;;;;;5.07;3.03;;;;;;;27.67;42.62;101408.41;144994;697;5002;-87
2021/09/05 08:50:06;;;;;;;7.65;2.70;;;;;;;27.66;42.61;101411.97;144994;694;4567;-86
2021/09/05 08:52:33;;;;;;;4.00;2.58;;;;;;;27.70;43.25;101408.31;144994;569;4572;-87
2021/09/05 08:54:59;;;;;;;3.15;2.67;;;;;;;27.54;43.56;101404.34;144992;568;6003;-88
2021/09/05 08:57:26;;;;;;;2.70;2.45;;;;;;;27.65;43.28;101404.91;144992;700;6002;-90
2021/09/05 08:59:53;;;;;;;4.70;2.40;;;;;;;27.51;43.91;101397.31;144992;591;6002;-89
2021/09/05 09:02:19;;;;;;;4.97;3.40;;;;;;;27.64;43.37;101403.16;144992;625;6003;-88
2021/09/05 09:04:49;;;;;;;5.32;3.95;;;;;;;27.72;43.25;101405.59;144992;623;6002;-88
2021/09/05 09:07:17;;;;;;;4.47;2.67;;;;;;;27.78;43.33;101406.25;144992;572;6002;-82
2021/09/05 09:10:02;;;;;;;3.40;2.20;;;;;;;27.84;42.76;101411.41;144992;625;6002;-87
2021/09/05 09:12:48;;;;;;;3.37;2.25;;;;;;;27.70;43.13;101408.31;144992;636;6002;-87
2021/09/05 09:15:33;;;;;;;3.97;2.50;;;;;;;27.84;43.17;101403.41;144992;593;6002;-88
2021/09/05 09:18:02;;;;;;;2.72;2.40;;;;;;;27.91;42.92;101400.56;144992;580;6002;-87
2021/09/05 09:20:54;;;;;;;3.67;2.22;;;;;;;28.08;42.90;101400.00;144992;610;6002;-88
2021/09/05 09:26:05;;;;;;;2.90;2.60;;;;;;;28.42;42.60;101389.94;144992;578;6002;-86
2021/09/05 09:28:50;;;;;;;5.47;3.70;;;;;;;28.46;42.63;101387.19;144992;615;6002;-87
2021/09/05 09:31:33;;;;;;;3.95;2.42;;;;;;;28.62;42.04;101384.88;144992;580;6002;-86
2021/09/05 09:34:26;;;;;;;4.53;2.40;;;;;;;28.95;41.61;101388.12;144992;569;6002;-89
2021/09/05 09:36:57;;;;;;;3.08;2.30;;;;;;;29.01;40.67;101384.38;144992;623;6002;-85
2021/09/05 09:39:24;;;;;;;4.18;2.50;;;;;;;29.02;40.85;101376.31;144992;591;6002;-86
2021/09/05 09:41:50;;;;;;;3.95;2.60;;;;;;;28.88;40.67;101374.12;144992;571;6002;-86
2021/09/05 09:44:17;;;;;;;3.08;2.42;;;;;;;28.80;40.94;101370.00;144992;630;6002;-88
2021/09/05 09:46:44;;;;;;;3.35;2.90;;;;;;;28.62;41.28;101366.19;144992;583;6002;-88
2021/09/05 09:49:13;;;;;;;5.70;5.20;;;;;;;28.61;40.97;101357.31;144992;584;6002;-87
2021/09/05 09:51:41;;;;;;;7.18;2.90;;;;;;;28.66;41.31;101362.50;144992;679;6002;-88
2021/09/05 09:54:07;;;;;;;3.90;3.05;;;;;;;28.73;41.68;101364.88;144992;594;6002;-89
2021/09/05 09:56:35;;;;;;;3.92;2.80;;;;;;;28.91;41.26;101352.66;144992;592;6002;-87
2021/09/05 09:59:04;;;;;;;3.37;2.83;;;;;;;28.96;42.38;101355.16;144992;624;6002;-87
2021/09/05 10:01:33;;;;;;;3.90;2.60;;;;;;;28.90;42.63;101352.69;144992;600;6003;-88
2021/09/05 10:04:01;;;;;;;3.33;3.03;;;;;;;28.75;43.21;101349.66;144992;594;6002;-89
2021/09/05 10:06:34;;;;;;;6.28;3.00;;;;;;;28.98;43.06;101349.75;144992;620;6002;-87
2021/09/05 10:09:03;;;;;;;8.25;3.30;;;;;;;28.70;43.66;101358.78;144992;632;6003;-87
2021/09/05 10:11:30;;;;;;;26.98;18.70;;;;;;;28.61;44.03;101356.44;144992;576;6002;-87
2021/09/05 10:13:58;;;;;;;6.37;2.85;;;;;;;28.64;43.95;101346.50;144992;614;6002;-88
2021/09/05 10:16:24;;;;;;;4.10;2.90;;;;;;;28.65;44.30;101350.94;144992;573;6002;-88
2021/09/05 10:18:53;;;;;;;3.30;2.95;;;;;;;28.62;44.50;101359.06;144992;615;6002;-89
2021/09/05 10:21:21;;;;;;;8.02;3.28;;;;;;;28.64;44.29;101340.31;144992;573;6002;-88
2021/09/05 10:23:56;;;;;;;9.50;8.60;;;;;;;28.66;44.16;101349.13;144992;598;6002;-86
2021/09/05 10:26:24;;;;;;;6.85;3.22;;;;;;;28.51;44.56;101363.88;144992;713;6002;-90
2021/09/05 10:28:57;;;;;;;4.25;2.80;;;;;;;28.49;44.30;101344.34;144992;582;6002;-88
2021/09/05 10:31:31;;;;;;;4.43;2.30;;;;;;;28.47;44.11;101347.06;144992;587;6002;-90
2021/09/05 10:33:58;;;;;;;;;;;;;;;28.35;44.32;101345.72;144997;910;6002;-88
2021/09/05 10:36:26;;;;;;;3.40;2.70;;;;;;;28.30;44.21;101349.47;144997;631;6002;-88
2021/09/05 10:39:14;;;;;;;4.57;2.70;;;;;;;28.07;44.83;101331.56;144992;586;6002;-85
2021/09/05 10:41:49;;;;;;;4.82;3.17;;;;;;;27.89;44.78;101336.56;144992;561;6004;-86
2021/09/05 10:44:16;;;;;;;3.28;2.33;;;;;;;27.81;44.86;101334.16;144992;571;6004;-88
2021/09/05 10:46:46;;;;;;;4.28;2.60;;;;;;;27.54;45.43;101337.69;144992;571;6004;-90
2021/09/05 10:49:14;;;;;;;3.78;3.10;;;;;;;27.64;44.95;101344.47;144992;661;6004;-88
2021/09/05 10:51:53;;;;;;;3.42;2.30;;;;;;;27.58;44.69;101334.00;144992;564;6004;-87
2021/09/05 10:54:25;;;;;;;6.45;3.90;;;;;;;27.56;44.96;101341.19;144992;685;6004;-88
2021/09/05 10:56:53;;;;;;;4.28;3.50;;;;;;;27.47;44.97;101345.91;144992;568;6004;-88
2021/09/05 10:59:23;;;;;;;5.87;3.90;;;;;;;27.48;44.82;101342.28;144992;590;6004;-87
2021/09/05 11:02:03;;;;;;;4.18;2.87;;;;;;;27.51;44.86;101330.66;144992;608;6005;-85
2021/09/05 11:04:43;;;;;;;5.22;4.72;;;;;;;27.54;44.88;101332.34;144992;569;6004;-86
2021/09/05 11:07:11;;;;;;;3.00;2.67;;;;;;;27.54;44.88;101335.91;144992;599;6004;-86
2021/09/05 11:09:41;;;;;;;5.45;3.78;;;;;;;27.45;45.62;101345.03;144992;567;6004;-86
2021/09/05 11:12:34;;;;;;;7.68;6.85;;;;;;;27.55;45.37;101334.09;144992;584;6004;-86
2021/09/05 11:15:02;;;;;;;3.28;2.97;;;;;;;27.54;44.38;101337.69;144992;600;6004;-87
2021/09/05 11:17:33;;;;;;;3.60;3.20;;;;;;;27.62;44.66;101331.19;144992;588;6004;-86
2021/09/05 11:20:11;;;;;;;4.75;3.28;;;;;;;27.49;44.76;101324.53;144992;590;6004;-83
2021/09/05 11:22:46;;;;;;;4.50;3.53;;;;;;;27.54;44.94;101327.91;144992;646;6004;-89
2021/09/05 11:25:29;;;;;;;4.22;3.65;;;;;;;27.66;44.22;101321.28;144992;578;6004;-88
2021/09/05 11:28:15;;;;;;;9.48;8.48;;;;;;;27.59;44.30;101319.75;144992;581;6004;-86
2021/09/05 11:30:48;;;;;;;7.53;6.68;;;;;;;27.74;44.06;101308.59;144992;689;6002;-86
2021/09/05 11:33:14;;;;;;;8.75;7.80;;;;;;;27.76;43.86;101298.75;144992;581;6002;-87
2021/09/05 11:35:46;;;;;;;4.55;4.07;;;;;;;27.76;43.42;101298.75;144992;563;6002;-86
2021/09/05 11:38:14;;;;;;;2.95;2.70;;;;;;;27.80;43.69;101302.19;144992;635;6002;-87
2021/09/05 11:40:43;;;;;;;2.85;2.60;;;;;;;27.81;43.34;101307.47;144992;574;6002;-86
2021/09/05 11:43:09;;;;;;;3.33;2.67;;;;;;;27.86;43.40;101296.66;144992;579;6002;-83
2021/09/05 11:45:42;;;;;;;3.40;3.10;;;;;;;27.80;43.05;101303.03;144992;622;6002;-86
2021/09/05 11:48:09;;;;;;;3.42;3.03;;;;;;;27.62;43.18;101299.19;144992;587;6002;-86
2021/09/05 11:50:39;;;;;;;3.58;3.20;;;;;;;27.53;43.48;101303.97;144992;563;6002;-86